Time;durP1;ratioP1;P1;durP2;ratioP2;P2;SDS_P1;SDS_P2;PMS_P1;PMS_P2;Temp;Humidity;BMP_temperature;BMP_pressure;BME280_temperature;BME280_humidity;BME280_pressure;Samples;Min_cycle;Max_cycle;Signal;HPM_P1;HPM_P2
2022/03/06 00:01:33;;;;;;;18.80;14.60;;;;;;;19.07;25.76;102149.09;7306755;19;129611;-60
2022/03/06 00:04:00;;;;;;;17.08;14.02;;;;;;;19.04;25.86;102153.16;7311139;19;130179;-60
2022/03/06 00:06:26;;;;;;;17.95;14.43;;;;;;;19.02;25.43;102148.88;7310885;19;129244;-60
2022/03/06 00:08:53;;;;;;;18.65;15.35;;;;;;;19.00;25.48;102151.06;7310401;19;129553;-59
2022/03/06 00:11:20;;;;;;;18.38;15.23;;;;;;;18.98;25.45;102148.47;7312000;19;129530;-60
2022/03/06 00:13:47;;;;;;;16.73;14.45;;;;;;;18.95;25.52;102143.41;7309103;19;129541;-60
2022/03/06 00:16:13;;;;;;;17.40;13.73;;;;;;;18.94;25.50;102146.38;7309209;19;128968;-60
2022/03/06 00:18:40;;;;;;;18.35;14.60;;;;;;;;;;7311124;19;129188;-60
2022/03/06 00:21:09;;;;;;;18.35;14.38;;;;;;;18.90;25.70;102151.50;7310447;19;129496;-60
2022/03/06 00:23:35;;;;;;;16.80;13.63;;;;;;;18.86;25.63;102145.56;7311551;19;129477;-60
2022/03/06 00:26:02;;;;;;;18.35;14.18;;;;;;;18.85;25.72;102154.06;7308482;19;128757;-60
2022/03/06 00:28:30;;;;;;;16.52;12.98;;;;;;;18.84;25.86;102147.69;7311231;19;129040;-60
2022/03/06 00:30:56;;;;;;;17.70;14.10;;;;;;;18.82;25.52;102157.28;7308141;19;129966;-60
2022/03/06 00:33:23;;;;;;;17.33;13.82;;;;;;;18.80;25.63;102151.94;7309652;19;129479;-60
2022/03/06 00:35:50;;;;;;;15.10;12.75;;;;;;;18.79;25.66;102160.50;7312618;19;129445;-60
2022/03/06 00:38:17;;;;;;;15.15;12.65;;;;;;;18.76;25.93;102156.25;7307212;19;129049;-60
2022/03/06 00:40:45;;;;;;;16.65;13.05;;;;;;;18.75;25.94;102158.16;7309144;19;130129;-60
2022/03/06 00:43:13;;;;;;;16.05;12.07;;;;;;;18.74;26.12;102163.94;7310681;19;131543;-60
2022/03/06 00:45:39;;;;;;;15.43;12.05;;;;;;;18.71;26.11;102159.66;7309418;19;128993;-60
2022/03/06 00:48:06;;;;;;;16.85;12.57;;;;;;;18.70;25.87;102162.66;7311716;19;130272;-60
2022/03/06 00:50:35;;;;;;;16.10;12.35;;;;;;;18.69;25.86;102172.91;7308364;19;130223;-60
2022/03/06 00:53:03;;;;;;;15.40;11.75;;;;;;;18.68;25.90;102171.19;7309575;19;131148;-60
2022/03/06 00:55:31;;;;;;;15.02;11.90;;;;;;;18.67;26.31;102175.03;7309001;19;129152;-60
2022/03/06 00:58:05;;;;;;;15.48;12.48;;;;;;;18.66;25.92;102178.00;7307915;19;130760;-60
2022/03/06 01:00:43;;;;;;;13.85;11.05;;;;;;;18.64;25.91;102182.94;7311057;19;131181;-60
2022/03/06 01:03:19;;;;;;;15.30;12.32;;;;;;;18.62;26.08;102183.13;7310315;19;131396;-60
2022/03/06 01:05:46;;;;;;;16.00;11.73;;;;;;;18.61;26.24;102182.28;7309326;19;129677;-60
2022/03/06 01:08:13;;;;;;;13.52;11.35;;;;;;;18.59;26.27;102184.41;7309655;19;129232;-60
2022/03/06 01:10:43;;;;;;;14.73;11.02;;;;;;;18.58;26.20;102184.66;7306965;19;130371;-60
2022/03/06 01:13:11;;;;;;;13.50;11.00;;;;;;;18.56;26.36;102190.38;7309717;19;130594;-61
2022/03/06 01:15:38;;;;;;;16.00;11.95;;;;;;;18.55;26.49;102185.91;7313212;19;130324;-60
2022/03/06 01:18:06;;;;;;;17.05;11.25;;;;;;;18.55;26.49;102188.69;7315938;19;130569;-60
2022/03/06 01:20:37;;;;;;;13.43;10.80;;;;;;;18.57;26.55;102194.03;7317739;19;129945;-61
2022/03/06 01:23:05;;;;;;;15.57;11.07;;;;;;;18.58;26.32;102195.72;7313835;19;129783;-57
2022/03/06 01:25:32;;;;;;;13.00;10.70;;;;;;;18.59;26.46;102194.63;7316171;19;129434;-61
2022/03/06 01:28:00;;;;;;;18.05;10.90;;;;;;;18.57;26.59;102197.63;7315915;19;128720;-60
2022/03/06 01:30:27;;;;;;;16.20;11.75;;;;;;;18.55;26.46;102198.91;7314493;19;129634;-60
2022/03/06 01:32:54;;;;;;;19.05;12.27;;;;;;;18.53;26.02;102201.06;7316601;19;130061;-60
2022/03/06 01:35:21;;;;;;;16.13;11.30;;;;;;;18.51;26.18;102200.41;7314665;19;130025;-60
2022/03/06 01:37:48;;;;;;;17.33;11.20;;;;;;;18.50;26.53;102207.00;7314084;19;131745;-60
2022/03/06 01:40:18;;;;;;;15.52;11.40;;;;;;;18.49;26.36;102199.75;7315721;19;130565;-60
2022/03/06 01:42:47;;;;;;;15.25;12.13;;;;;;;18.46;26.45;102212.97;7314592;19;132472;-60
2022/03/06 01:45:15;;;;;;;14.02;11.35;;;;;;;18.45;26.46;102204.88;7317589;19;130181;-60
2022/03/06 01:47:44;;;;;;;15.60;11.25;;;;;;;18.42;26.28;102206.19;7313640;19;129486;-60
2022/03/06 01:50:15;;;;;;;19.83;11.43;;;;;;;18.42;26.12;102211.72;7314630;19;130113;-60
2022/03/06 01:52:43;;;;;;;14.23;10.95;;;;;;;18.41;26.17;102210.00;7316801;19;131631;-60
2022/03/06 01:55:12;;;;;;;12.25;10.45;;;;;;;18.41;26.43;102215.56;7312527;19;128966;-60
2022/03/06 01:57:40;;;;;;;13.80;10.35;;;;;;;18.38;26.62;102213.16;7315283;19;129072;-60
2022/03/06 02:00:12;;;;;;;13.50;10.70;;;;;;;18.37;26.64;102211.47;7316184;19;129690;-60
2022/03/06 02:02:40;;;;;;;12.63;10.07;;;;;;;18.35;26.37;102208.03;7312826;19;130434;-60
2022/03/06 02:05:08;;;;;;;13.18;10.73;;;;;;;18.34;26.22;102214.66;7315745;19;129332;-60
2022/03/06 02:07:35;;;;;;;13.70;11.02;;;;;;;18.32;26.46;102216.81;7312782;19;129178;-60
2022/03/06 02:10:03;;;;;;;15.32;10.68;;;;;;;18.30;26.22;102214.22;7314080;19;130019;-60
2022/03/06 02:12:31;;;;;;;15.73;11.20;;;;;;;18.28;26.04;102209.97;7316168;19;130569;-60
2022/03/06 02:15:00;;;;;;;13.73;10.10;;;;;;;18.27;26.15;102213.81;7313389;19;128888;-60
2022/03/06 02:17:27;;;;;;;15.52;11.45;;;;;;;18.25;26.13;102218.69;7315437;19;129863;-60
2022/03/06 02:20:07;;;;;;;14.65;11.25;;;;;;;18.24;26.30;102215.09;7311979;19;130469;-60
2022/03/06 02:22:37;;;;;;;13.82;10.60;;;;;;;18.23;26.48;102223.59;7314816;19;130114;-60
2022/03/06 02:25:22;;;;;;;13.88;10.70;;;;;;;18.21;26.45;102218.28;7312123;19;128853;-60
2022/03/06 02:27:51;;;;;;;13.20;10.52;;;;;;;18.20;26.21;102221.28;7310340;19;128894;-60
2022/03/06 02:30:21;;;;;;;12.73;9.90;;;;;;;18.20;26.32;102224.03;7314225;19;130805;-60
2022/03/06 02:32:49;;;;;;;13.25;9.90;;;;;;;18.20;26.23;102224.03;7314422;19;129549;-60
2022/03/06 02:35:17;;;;;;;13.02;10.73;;;;;;;18.18;26.22;102226.16;7313091;19;129968;-60
2022/03/06 02:37:44;;;;;;;14.55;9.75;;;;;;;18.16;26.43;102223.59;7314976;19;129904;-60
2022/03/06 02:40:14;;;;;;;12.30;10.13;;;;;;;18.15;26.59;102222.75;7311867;19;130223;-59
2022/03/06 02:42:43;;;;;;;12.65;9.82;;;;;;;18.12;26.60;102223.16;7313388;19;132688;-60
2022/03/06 02:45:14;;;;;;;12.95;10.50;;;;;;;18.12;26.25;102228.72;7315699;19;129694;-60
2022/03/06 02:47:41;;;;;;;13.60;10.93;;;;;;;18.10;26.44;102230.00;7313379;19;128976;-60
2022/03/06 02:50:10;;;;;;;16.75;11.60;;;;;;;18.09;26.09;102233.81;7313820;19;129512;-60
2022/03/06 02:52:37;;;;;;;13.75;10.43;;;;;;;18.07;26.13;102236.81;7314281;19;129581;-60
2022/03/06 02:55:06;;;;;;;16.88;10.93;;;;;;;18.06;25.95;102240.66;7312982;19;131025;-60
2022/03/06 02:57:33;;;;;;;13.25;11.07;;;;;;;18.06;26.01;102235.09;7314899;19;128986;-60
2022/03/06 03:00:00;;;;;;;12.05;10.48;;;;;;;18.04;25.98;102234.47;7311721;19;129973;-60
2022/03/06 03:02:27;;;;;;;12.93;10.60;;;;;;;18.03;25.86;102231.91;7312839;19;129554;-60
2022/03/06 03:04:54;;;;;;;12.60;10.65;;;;;;;18.01;25.90;102237.63;7313909;19;129122;-60
2022/03/06 03:07:20;;;;;;;14.55;10.93;;;;;;;18.00;26.12;102233.16;7312119;19;130153;-60
2022/03/06 03:09:47;;;;;;;12.52;10.18;;;;;;;18.00;25.98;102238.69;7313337;19;130030;-60
2022/03/06 03:12:14;;;;;;;13.07;10.52;;;;;;;17.99;25.99;102237.00;7311437;19;131459;-60
2022/03/06 03:14:41;;;;;;;13.30;10.00;;;;;;;17.98;26.34;102232.50;7311788;19;132303;-60
2022/03/06 03:17:08;;;;;;;12.02;10.02;;;;;;;17.98;26.01;102236.16;7313599;19;129961;-60
2022/03/06 03:19:34;;;;;;;13.05;10.57;;;;;;;17.96;25.94;102240.19;7312060;19;130358;-60
2022/03/06 03:22:01;;;;;;;12.23;10.85;;;;;;;17.94;26.32;102243.16;7314192;19;129869;-60
2022/03/06 03:24:29;;;;;;;13.10;10.65;;;;;;;17.92;26.15;102239.75;7309004;19;129053;-60
2022/03/06 03:26:56;;;;;;;11.52;9.65;;;;;;;17.92;25.95;102233.38;7312533;19;128969;-60
2022/03/06 03:29:22;;;;;;;11.85;9.32;;;;;;;17.91;26.40;102238.03;7312392;19;129958;-60
2022/03/06 03:31:49;;;;;;;12.68;9.43;;;;;;;17.91;26.46;102239.97;7310515;19;129524;-59
2022/03/06 03:34:16;;;;;;;12.10;9.48;;;;;;;17.88;26.06;102235.72;7314010;19;130016;-60
2022/03/06 03:36:43;;;;;;;11.18;9.70;;;;;;;17.88;26.09;102238.47;7308792;19;130067;-60
2022/03/06 03:39:10;;;;;;;13.65;10.20;;;;;;;17.88;26.03;102238.47;7311607;19;129652;-60
2022/03/06 03:41:37;;;;;;;10.90;9.43;;;;;;;17.87;26.31;102242.31;7311071;19;129349;-60
2022/03/06 03:44:04;;;;;;;11.93;9.57;;;;;;;17.87;26.02;102246.97;7310622;19;128954;-60
2022/03/06 03:46:30;;;;;;;11.52;9.65;;;;;;;17.85;26.19;102245.25;7313833;19;129215;-60
2022/03/06 03:49:00;;;;;;;11.57;9.63;;;;;;;17.84;26.25;102249.13;7310227;19;129400;-60
2022/03/06 03:51:27;;;;;;;10.98;9.57;;;;;;;17.83;26.17;102241.00;7309276;19;132823;-60
2022/03/06 03:53:54;;;;;;;11.82;9.35;;;;;;;17.82;26.15;102245.69;7311700;19;129290;-60
2022/03/06 03:56:21;;;;;;;11.77;9.82;;;;;;;17.81;26.39;102244.00;7310222;19;130558;-60
2022/03/06 03:58:48;;;;;;;12.23;9.73;;;;;;;17.80;26.41;102241.41;7312674;19;130443;-60
2022/03/06 04:01:18;;;;;;;12.00;9.85;;;;;;;17.79;26.21;102239.72;7309869;19;129578;-60
2022/03/06 04:03:45;;;;;;;13.50;10.88;;;;;;;17.78;26.40;102247.16;7310762;19;129509;-60
2022/03/06 04:06:12;;;;;;;12.15;9.95;;;;;;;17.77;25.96;102253.75;7312844;19;130212;-60
2022/03/06 04:08:40;;;;;;;12.10;9.40;;;;;;;17.75;26.18;102261.41;7309713;19;130593;-60
2022/03/06 04:11:06;;;;;;;12.30;10.23;;;;;;;17.75;26.02;102255.88;7310737;19;130617;-60
2022/03/06 04:13:33;;;;;;;13.43;10.45;;;;;;;17.73;25.95;102260.78;7309698;19;129037;-60
2022/03/06 04:16:00;;;;;;;12.07;10.13;;;;;;;17.72;25.80;102261.88;7310773;19;128965;-60
2022/03/06 04:18:27;;;;;;;13.30;10.13;;;;;;;17.72;25.85;102272.06;7312963;19;130775;-59
2022/03/06 04:20:54;;;;;;;11.77;9.43;;;;;;;17.70;25.65;102269.50;7310657;19;129934;-60
2022/03/06 04:23:21;;;;;;;11.38;9.40;;;;;;;17.69;26.21;102270.56;7310939;19;129532;-60
2022/03/06 04:25:48;;;;;;;12.07;10.13;;;;;;;17.69;25.75;102278.88;7311573;19;129206;-60
2022/03/06 04:28:15;;;;;;;10.60;9.32;;;;;;;17.68;26.20;102279.94;7308748;19;129993;-60
2022/03/06 04:30:42;;;;;;;11.77;9.55;;;;;;;17.67;26.22;102287.38;7312044;19;129530;-59
2022/03/06 04:33:08;;;;;;;12.75;10.25;;;;;;;17.65;25.89;102288.63;7308690;19;128885;-60
2022/03/06 04:35:35;;;;;;;12.15;9.95;;;;;;;17.64;25.96;102286.94;7309631;19;129302;-60
2022/03/06 04:38:02;;;;;;;13.68;10.30;;;;;;;17.63;25.90;102290.75;7311185;19;131247;-60
2022/03/06 04:40:29;;;;;;;10.93;9.27;;;;;;;17.62;25.86;102300.13;7309970;19;130491;-60
2022/03/06 04:42:55;;;;;;;12.00;9.73;;;;;;;17.61;26.04;102307.56;7311089;19;129047;-60
2022/03/06 04:45:24;;;;;;;11.52;10.15;;;;;;;17.60;25.80;102308.63;7307872;19;129391;-60
2022/03/06 04:47:51;;;;;;;11.85;9.88;;;;;;;17.59;25.65;102306.91;7310682;19;129862;-60
2022/03/06 04:50:18;;;;;;;14.80;10.32;;;;;;;17.57;25.92;102308.19;7317480;19;129487;-60
2022/03/06 04:52:50;;;;;;;11.23;9.90;;;;;;;17.56;25.63;102312.03;7315705;19;131186;-60
2022/03/06 04:55:17;;;;;;;11.63;9.70;;;;;;;17.54;25.72;102320.47;7318292;19;129328;-60
2022/03/06 04:57:46;;;;;;;10.77;9.55;;;;;;;17.53;25.83;102314.09;7315688;19;129485;-60
2022/03/06 05:00:15;;;;;;;11.35;9.98;;;;;;;17.52;25.63;102317.91;7317050;19;129527;-60
2022/03/06 05:02:42;;;;;;;11.52;9.68;;;;;;;17.51;25.79;102321.75;7317904;19;129232;-60
2022/03/06 05:05:09;;;;;;;9.65;8.48;;;;;;;17.51;25.57;102326.44;7313343;19;129037;-60
2022/03/06 05:07:37;;;;;;;11.13;9.15;;;;;;;17.54;25.92;102326.91;7317829;19;133521;-60
2022/03/06 05:10:09;;;;;;;12.25;9.32;;;;;;;17.64;25.53;102326.53;7314848;19;130970;-60
2022/03/06 05:12:38;;;;;;;10.00;8.80;;;;;;;17.79;25.72;102325.53;7315684;19;129968;-60
2022/03/06 05:15:06;;;;;;;9.80;8.57;;;;;;;18.01;25.34;102326.25;7315623;19;128970;-60
2022/03/06 05:17:36;;;;;;;10.50;8.43;;;;;;;18.30;25.04;102329.75;7314259;19;130741;-60
2022/03/06 05:20:05;;;;;;;8.82;7.90;;;;;;;18.66;25.04;102334.09;7316934;19;130354;-61
2022/03/06 05:22:32;;;;;;;9.23;8.10;;;;;;;19.02;24.45;102327.25;7318158;19;129315;-60
2022/03/06 05:24:59;;;;;;;9.73;8.07;;;;;;;19.36;24.39;102330.00;7315134;19;129044;-60
2022/03/06 05:27:27;;;;;;;9.10;7.45;;;;;;;19.69;24.11;102338.22;7317211;19;129519;-60
2022/03/06 05:29:54;;;;;;;9.77;6.82;;;;;;;20.01;23.65;102329.13;7312761;19;129579;-60
2022/03/06 05:32:21;;;;;;;9.00;7.60;;;;;;;20.27;23.72;102335.63;7315434;19;128894;-60
2022/03/06 05:34:48;;;;;;;8.95;6.85;;;;;;;20.48;23.44;102341.91;7314796;19;129142;-60
2022/03/06 05:37:14;;;;;;;8.93;6.85;;;;;;;20.64;23.54;102337.75;7315747;19;130680;-60
2022/03/06 05:39:41;;;;;;;7.53;6.50;;;;;;;20.72;23.07;102345.78;7316776;19;130791;-60
2022/03/06 05:42:08;;;;;;;7.90;7.10;;;;;;;20.75;23.10;102348.13;7313511;19;128996;-60
2022/03/06 05:44:35;;;;;;;8.23;6.72;;;;;;;20.74;22.93;102350.03;7316104;19;129244;-60
2022/03/06 05:47:02;;;;;;;8.10;6.72;;;;;;;20.71;22.89;102349.66;7315826;19;129575;-60
2022/03/06 05:49:28;;;;;;;9.10;6.95;;;;;;;20.65;22.91;102356.13;7314136;19;129858;-60
2022/03/06 05:51:55;;;;;;;7.60;6.80;;;;;;;20.55;23.21;102354.72;7315888;19;129054;-60
2022/03/06 05:54:22;;;;;;;7.90;7.10;;;;;;;20.49;23.46;102354.75;7312517;19;129393;-60
2022/03/06 05:56:49;;;;;;;6.82;5.93;;;;;;;20.40;23.09;102357.78;7315812;19;132625;-60
2022/03/06 05:59:16;;;;;;;10.27;6.97;;;;;;;20.32;23.26;102362.75;7315664;19;129528;-61
2022/03/06 06:01:42;;;;;;;6.88;5.90;;;;;;;20.23;23.72;102362.16;7314674;19;129888;-60
2022/03/06 06:04:10;;;;;;;7.53;6.57;;;;;;;20.15;23.76;102377.19;7316069;19;129566;-62
2022/03/06 06:06:36;;;;;;;6.28;5.65;;;;;;;20.07;23.31;102369.06;7312598;19;131148;-60
2022/03/06 06:09:03;;;;;;;8.07;6.90;;;;;;;19.97;23.33;102387.03;7315308;19;130624;-60
2022/03/06 06:11:30;;;;;;;7.43;6.32;;;;;;;19.88;23.74;102385.59;7315660;19;128662;-60
2022/03/06 06:13:57;;;;;;;7.68;6.07;;;;;;;19.80;23.53;102383.06;7314474;19;129658;-60
2022/03/06 06:16:24;;;;;;;7.35;6.00;;;;;;;19.72;23.67;102394.38;7316204;19;129356;-60
2022/03/06 06:18:51;;;;;;;6.72;6.03;;;;;;;19.62;23.95;102392.09;7311835;19;129432;-60
2022/03/06 06:21:19;;;;;;;7.28;5.85;;;;;;;19.53;24.21;102388.69;7315035;19;129068;-60
2022/03/06 06:23:46;;;;;;;6.10;5.50;;;;;;;19.45;24.04;102397.22;7314554;19;128949;-60
2022/03/06 06:26:13;;;;;;;7.68;6.40;;;;;;;19.36;24.13;102394.69;7313677;19;130014;-60
2022/03/06 06:28:39;;;;;;;6.50;5.80;;;;;;;19.30;24.17;102403.00;7315521;19;130505;-61
2022/03/06 06:31:07;;;;;;;7.47;6.68;;;;;;;19.25;24.11;102411.97;7313117;19;129722;-60
2022/03/06 06:33:35;;;;;;;7.63;6.30;;;;;;;19.22;24.17;102409.63;7311767;19;129844;-60
2022/03/06 06:36:03;;;;;;;8.30;6.80;;;;;;;19.22;24.29;102406.84;7315496;19;129974;-68
2022/03/06 06:38:30;;;;;;;6.55;5.85;;;;;;;19.24;23.88;102407.50;7313086;19;129874;-67
2022/03/06 06:40:57;;;;;;;6.85;6.13;;;;;;;19.30;23.87;102412.22;7314461;19;131884;-71
2022/03/06 06:43:24;;;;;;;6.70;6.03;;;;;;;19.41;23.90;102415.41;7311935;19;129253;-68
2022/03/06 06:45:51;;;;;;;7.18;5.85;;;;;;;19.54;24.01;102418.16;7313112;19;130290;-72
2022/03/06 06:48:18;;;;;;;6.03;5.38;;;;;;;19.75;23.98;102418.94;7314513;19;130349;-70
2022/03/06 06:50:44;;;;;;;5.95;5.38;;;;;;;19.97;23.59;102423.16;7312819;19;129491;-67
2022/03/06 06:53:11;;;;;;;5.88;5.28;;;;;;;20.22;23.45;102414.09;7312891;19;129938;-68
2022/03/06 06:55:38;;;;;;;5.90;5.30;;;;;;;20.48;23.08;102416.97;7315048;19;130120;-68
2022/03/06 06:58:05;;;;;;;6.60;5.25;;;;;;;20.68;22.81;102411.28;7310336;19;129541;-68
2022/03/06 07:00:32;;;;;;;6.32;5.50;;;;;;;20.81;23.00;102422.34;7315685;19;128805;-70
2022/03/06 07:03:00;;;;;;;6.10;5.38;;;;;;;20.88;22.71;102425.06;7313008;19;129486;-69
2022/03/06 07:05:27;;;;;;;6.03;5.13;;;;;;;20.90;22.68;102421.00;7314283;19;130700;-66
2022/03/06 07:07:54;;;;;;;6.03;5.38;;;;;;;20.89;22.63;102424.00;7312990;19;129620;-69
2022/03/06 07:10:21;;;;;;;5.95;5.05;;;;;;;20.85;22.60;102428.31;7310117;19;129286;-60
2022/03/06 07:12:55;;;;;;;7.00;4.70;;;;;;;20.83;23.17;102430.47;7312604;19;129072;-59
2022/03/06 07:15:28;;;;;;;7.25;4.88;;;;;;;20.79;22.78;102430.06;7310060;19;134158;-58
2022/03/06 07:17:58;;;;;;;7.35;5.10;;;;;;;20.74;22.80;102439.03;7312716;19;130257;-57
2022/03/06 07:20:26;;;;;;;8.40;5.40;;;;;;;20.68;23.10;102439.06;7314191;19;129049;-57
2022/03/06 07:22:53;;;;;;;9.35;5.72;;;;;;;20.62;22.80;102440.00;7310352;19;129292;-57
2022/03/06 07:25:20;;;;;;;10.73;5.13;;;;;;;20.56;23.01;102441.72;7311333;19;129626;-55
2022/03/06 07:27:47;;;;;;;8.18;6.00;;;;;;;20.50;22.82;102440.69;7312752;19;129617;-58
2022/03/06 07:30:14;;;;;;;8.48;5.70;;;;;;;20.45;23.15;102451.63;7312324;19;129172;-56
2022/03/06 07:32:49;;;;;;;9.65;5.60;;;;;;;20.39;22.75;102453.34;7311836;19;129374;-57
2022/03/06 07:35:17;;;;;;;15.98;6.28;;;;;;;20.33;22.89;102450.59;7308676;19;129630;-58
2022/03/06 07:37:45;;;;;;;11.38;6.18;;;;;;;20.29;23.20;102461.31;7311728;19;129881;-58
2022/03/06 07:40:14;;;;;;;6.28;4.97;;;;;;;20.25;22.79;102463.69;7311862;19;129292;-58
2022/03/06 07:42:41;;;;;;;10.77;5.45;;;;;;;20.22;23.22;102472.47;7311824;19;129106;-55
2022/03/06 07:45:09;;;;;;;7.25;4.70;;;;;;;20.19;22.86;102469.28;7314933;19;130679;-59
2022/03/06 07:47:37;;;;;;;9.98;5.57;;;;;;;20.17;22.82;102477.84;7310595;19;131025;-58
2022/03/06 07:50:05;;;;;;;9.93;5.00;;;;;;;20.13;22.92;102476.56;7312796;19;129102;-55
2022/03/06 07:52:32;;;;;;;9.55;5.70;;;;;;;20.09;23.07;102472.50;7312750;19;129221;-59
2022/03/06 07:54:59;;;;;;;8.27;5.47;;;;;;;20.07;23.10;102477.41;7308896;19;129579;-58
2022/03/06 07:57:26;;;;;;;10.75;5.40;;;;;;;20.06;23.36;102482.13;7313428;19;129502;-58
2022/03/06 07:59:52;;;;;;;7.95;5.80;;;;;;;20.10;22.99;102479.78;7309157;19;129081;-55
2022/03/06 08:02:19;;;;;;;8.88;5.07;;;;;;;20.21;23.16;102481.88;7312119;19;130040;-58
2022/03/06 08:04:46;;;;;;;9.43;5.20;;;;;;;20.59;22.54;102489.41;7312352;19;129705;-58
2022/03/06 08:07:13;;;;;;;8.38;5.60;;;;;;;21.56;21.63;102487.50;7307510;19;130494;-59
2022/03/06 08:09:39;;;;;;;6.88;5.32;;;;;;;22.74;20.43;102490.22;7311591;19;128806;-56
2022/03/06 08:12:07;;;;;;;6.55;5.05;;;;;;;23.50;20.07;102497.22;7312776;19;132162;-59
2022/03/06 08:14:34;;;;;;;6.88;5.00;;;;;;;24.20;19.04;102501.09;7310180;19;129626;-59
2022/03/06 08:17:00;;;;;;;8.77;5.30;;;;;;;24.81;18.42;102495.06;7312928;19;130442;-57
2022/03/06 08:19:27;;;;;;;8.30;5.70;;;;;;;25.33;18.26;102501.63;7309831;19;129101;-59
2022/03/06 08:21:54;;;;;;;10.05;5.45;;;;;;;25.80;17.68;102497.59;7312160;19;129455;-59
2022/03/06 08:24:21;;;;;;;9.85;5.85;;;;;;;26.23;17.23;102495.97;7318529;19;130203;-57
2022/03/06 08:26:48;;;;;;;8.98;5.40;;;;;;;26.61;17.27;102506.53;7317659;19;129966;-57
2022/03/06 08:29:15;;;;;;;12.15;5.85;;;;;;;26.93;16.88;102508.56;7319643;19;129201;-57
2022/03/06 08:31:42;;;;;;;11.00;5.78;;;;;;;27.18;16.75;102507.97;7316082;19;129207;-57
2022/03/06 08:34:08;;;;;;;9.68;5.68;;;;;;;27.41;16.63;102503.13;7316465;19;129522;-57
2022/03/06 08:36:36;;;;;;;11.65;5.30;;;;;;;27.61;16.49;102511.72;7318676;19;129462;-57
2022/03/06 08:39:03;;;;;;;7.43;5.07;;;;;;;27.85;16.41;102516.09;7316453;19;129398;-57
2022/03/06 08:41:30;;;;;;;7.55;5.13;;;;;;;28.00;16.26;102516.19;7316473;19;129903;-57
2022/03/06 08:43:56;;;;;;;7.43;5.03;;;;;;;27.99;16.04;102522.09;7314936;19;129301;-57
2022/03/06 08:46:23;;;;;;;6.50;5.00;;;;;;;27.66;16.07;102524.13;7317111;19;130641;-57
2022/03/06 08:48:50;;;;;;;8.50;6.20;;;;;;;26.75;16.56;102519.06;7317958;19;129405;-57
2022/03/06 08:51:17;;;;;;;10.63;5.40;;;;;;;25.68;17.52;102520.13;7315585;19;131395;-57
2022/03/06 08:53:44;;;;;;;10.65;5.47;;;;;;;24.92;18.19;102526.06;7316391;19;129491;-57
2022/03/06 08:56:11;;;;;;;7.82;5.70;;;;;;;24.30;18.66;102527.59;7310321;19;130513;-57
2022/03/06 08:58:37;;;;;;;10.73;6.32;;;;;;;23.76;19.07;102526.66;7317222;19;129026;-57
2022/03/06 09:01:04;;;;;;;12.98;6.05;;;;;;;23.29;19.35;102523.78;7317460;19;129171;-56
2022/03/06 09:03:31;;;;;;;8.32;5.90;;;;;;;22.91;19.84;102528.63;7315377;19;129481;-54
2022/03/06 09:05:58;;;;;;;11.20;6.30;;;;;;;22.55;20.12;102530.38;7317354;19;130694;-57
2022/03/06 09:08:25;;;;;;;9.07;6.40;;;;;;;22.24;20.32;102533.13;7314594;19;129222;-57
2022/03/06 09:10:52;;;;;;;7.55;5.22;;;;;;;22.00;20.66;102532.06;7316083;19;128884;-55
2022/03/06 09:13:19;;;;;;;9.43;5.68;;;;;;;21.76;20.92;102540.25;7316627;19;130684;-57
2022/03/06 09:15:45;;;;;;;11.93;5.97;;;;;;;21.57;21.29;102535.69;7315120;19;130140;-56
2022/03/06 09:18:12;;;;;;;8.70;5.88;;;;;;;21.40;21.59;102527.88;7317600;19;129775;-56
2022/03/06 09:20:39;;;;;;;9.95;5.70;;;;;;;21.24;21.66;102540.41;7312685;19;129362;-57
2022/03/06 09:23:08;;;;;;;13.07;6.28;;;;;;;21.10;21.90;102536.84;7316481;19;130224;-57
2022/03/06 09:25:35;;;;;;;8.98;5.40;;;;;;;20.90;22.03;102535.06;7311715;19;131882;-56
2022/03/06 09:28:03;;;;;;;9.70;5.85;;;;;;;20.80;22.07;102537.44;7313098;19;129150;-58
2022/03/06 09:30:31;;;;;;;13.95;6.00;;;;;;;20.71;22.29;102533.19;7316416;19;129537;-55
2022/03/06 09:32:58;;;;;;;10.60;5.95;;;;;;;20.61;22.50;102539.25;7311574;19;130642;-57
2022/03/06 09:35:25;;;;;;;12.48;5.40;;;;;;;20.51;22.34;102536.94;7314338;19;130434;-56
2022/03/06 09:37:52;;;;;;;15.48;6.07;;;;;;;20.42;22.41;102539.09;7314677;19;129119;-54
2022/03/06 09:40:19;;;;;;;6.93;5.43;;;;;;;20.36;22.36;102536.34;7313179;19;129809;-55
2022/03/06 09:42:46;;;;;;;14.45;5.97;;;;;;;20.29;22.41;102541.91;7315429;19;129314;-63
2022/03/06 09:45:14;;;;;;;12.68;5.47;;;;;;;20.24;22.62;102534.25;7315101;19;133170;-62
2022/03/06 09:47:42;;;;;;;11.77;5.30;;;;;;;20.20;22.71;102535.72;7314156;19;129303;-62
2022/03/06 09:50:11;;;;;;;10.00;5.38;;;;;;;20.14;22.77;102533.84;7317170;19;129552;-62
2022/03/06 09:52:38;;;;;;;10.52;8.73;;;;;;;19.92;21.33;102535.97;7311045;19;129602;-59
2022/03/06 09:55:06;;;;;;;12.07;10.30;;;;;;;19.47;20.46;102523.63;7314521;19;130507;-60
2022/03/06 09:57:33;;;;;;;11.55;10.30;;;;;;;19.04;20.23;102533.16;7312963;19;128887;-56
2022/03/06 10:00:00;;;;;;;11.75;10.50;;;;;;;18.62;19.66;102535.16;7313295;19;132101;-54
2022/03/06 10:02:27;;;;;;;12.70;11.40;;;;;;;18.24;20.13;102519.81;7313130;19;130161;-60
2022/03/06 10:04:54;;;;;;;12.32;11.02;;;;;;;17.84;20.10;102530.63;7310523;19;129893;-54
2022/03/06 10:07:20;;;;;;;11.73;10.45;;;;;;;17.54;19.89;102528.91;7315413;19;129048;-59
2022/03/06 10:09:51;;;;;;;13.05;11.65;;;;;;;17.30;20.17;102532.06;7312874;19;129384;-49
2022/03/06 10:12:30;;;;;;;12.05;10.63;;;;;;;17.05;19.99;102529.69;7314174;19;130094;-58
2022/03/06 10:14:59;;;;;;;12.32;10.00;;;;;;;16.82;20.03;102529.84;7312320;19;130473;-57
2022/03/06 10:17:28;;;;;;;12.55;10.48;;;;;;;16.62;20.04;102517.47;7312531;19;129141;-60
2022/03/06 10:20:00;;;;;;;11.15;9.65;;;;;;;16.71;20.69;102521.00;7315419;19;128931;-54
2022/03/06 10:22:39;;;;;;;9.70;8.10;;;;;;;17.02;20.97;102528.19;7313287;19;129832;-59
2022/03/06 10:25:08;;;;;;;8.75;6.65;;;;;;;17.36;20.95;102534.03;7314363;19;130409;-63
2022/03/06 10:27:54;;;;;;;7.80;6.30;;;;;;;17.72;20.89;102527.59;7313782;19;130549;-54
2022/03/06 10:30:22;;;;;;;6.82;5.85;;;;;;;18.04;20.71;102535.44;7313888;19;129097;-60
2022/03/06 10:32:49;;;;;;;6.13;5.53;;;;;;;18.32;20.87;102535.41;7313739;19;130846;-60
2022/03/06 10:35:25;;;;;;;7.60;5.15;;;;;;;18.58;20.79;102531.09;7314134;19;130573;-58
2022/03/06 10:37:52;;;;;;;7.28;4.95;;;;;;;18.80;20.60;102534.56;7312772;19;129536;-51
2022/03/06 10:40:32;;;;;;;5.35;4.60;;;;;;;19.01;20.56;102536.34;7315327;19;129290;-60
2022/03/06 10:42:59;;;;;;;6.53;4.93;;;;;;;19.16;20.30;102535.31;7311243;19;129618;-60
2022/03/06 10:45:25;;;;;;;5.68;4.82;;;;;;;19.26;20.41;102533.00;7311232;19;129507;-60
2022/03/06 10:47:52;;;;;;;9.20;4.45;;;;;;;19.37;20.40;102535.16;7311445;19;129548;-61
2022/03/06 10:50:25;;;;;;;5.18;4.30;;;;;;;19.46;20.57;102533.03;7314048;19;128883;-69
2022/03/06 10:52:57;;;;;;;6.45;4.05;;;;;;;19.52;20.46;102531.31;7313856;19;130805;-72
2022/03/06 10:55:35;;;;;;;5.75;3.58;;;;;;;19.56;20.41;102532.59;7312677;19;129516;-72
2022/03/06 10:58:03;;;;;;;5.97;4.40;;;;;;;19.60;20.48;102536.66;7316126;19;129094;-67
2022/03/06 11:00:32;;;;;;;4.40;3.75;;;;;;;19.61;20.80;102537.53;7314073;19;130231;-72
2022/03/06 11:03:04;;;;;;;4.70;4.20;;;;;;;19.66;20.61;102540.47;7310795;19;129113;-69
2022/03/06 11:05:32;;;;;;;6.20;4.25;;;;;;;19.63;20.48;102533.44;7314556;19;129463;-69
2022/03/06 11:08:00;;;;;;;8.60;3.53;;;;;;;19.60;20.39;102531.09;7308937;19;129572;-69
2022/03/06 11:10:28;;;;;;;10.02;3.88;;;;;;;19.56;20.39;102527.06;7313926;19;128906;-69
2022/03/06 11:12:56;;;;;;;24.77;5.00;;;;;;;19.53;20.73;102531.09;7312333;19;130476;-67